createdAt,value
2018-12-19T00:02:00.668Z,79.13
2018-12-19T00:04:29.359Z,87.50
2018-12-19T00:06:57.960Z,74.80
2018-12-19T00:09:26.540Z,78.70
2018-12-19T00:11:55.978Z,83.07
2018-12-19T00:14:26.025Z,72.80
2018-12-19T00:16:56.482Z,78.70
2018-12-19T00:19:25.166Z,77.63
2018-12-19T00:21:54.302Z,75.90
2018-12-19T00:24:23.644Z,64.70
2018-12-19T00:26:53.002Z,69.33
2018-12-19T00:29:22.568Z,77.43
2018-12-19T00:31:51.262Z,68.50
2018-12-19T00:34:19.783Z,74.30
2018-12-19T00:36:48.474Z,70.40
2018-12-19T00:39:17.203Z,66.37
2018-12-19T00:41:45.215Z,66.10
2018-12-19T00:44:14.052Z,69.57
2018-12-19T00:46:42.162Z,60.10
2018-12-19T00:49:11.147Z,61.43
2018-12-19T00:51:42.024Z,61.13
2018-12-19T00:54:10.155Z,71.97
2018-12-19T00:56:38.136Z,62.57
2018-12-19T00:59:06.080Z,64.13
2018-12-19T01:01:35.495Z,60.93
2018-12-19T01:04:03.524Z,66.67
2018-12-19T01:06:31.659Z,58.70
2018-12-19T01:08:59.760Z,54.67
2018-12-19T01:11:28.600Z,54.93
2018-12-19T01:13:57.546Z,66.33
2018-12-19T01:16:26.673Z,56.53
2018-12-19T01:18:55.601Z,51.77
2018-12-19T01:21:23.540Z,58.20
2018-12-19T01:23:52.956Z,52.53
2018-12-19T01:26:22.190Z,61.27
2018-12-19T01:28:50.231Z,60.47
2018-12-19T01:31:18.955Z,65.77
2018-12-19T01:33:47.761Z,53.17
2018-12-19T01:36:17.155Z,59.53
2018-12-19T01:38:45.334Z,60.07
2018-12-19T01:41:15.175Z,63.60
2018-12-19T01:43:44.559Z,60.83
2018-12-19T01:46:14.524Z,61.30
2018-12-19T01:48:43.212Z,70.17
2018-12-19T01:51:11.744Z,74.47
2018-12-19T01:53:41.052Z,70.63
2018-12-19T01:56:09.073Z,68.53
2018-12-19T01:58:37.908Z,62.57
2018-12-19T02:01:06.847Z,63.03
2018-12-19T02:03:35.673Z,67.10
2018-12-19T02:06:04.087Z,73.67
2018-12-19T02:08:33.998Z,65.93
2018-12-19T02:11:04.315Z,61.40
2018-12-19T02:13:32.428Z,62.80
2018-12-19T02:16:00.707Z,61.47
2018-12-19T02:18:28.657Z,58.60
2018-12-19T02:20:56.898Z,57.93
2018-12-19T02:23:25.446Z,71.57
2018-12-19T02:25:53.745Z,64.97
2018-12-19T02:28:22.294Z,63.63
2018-12-19T02:30:50.731Z,63.07
2018-12-19T02:33:19.405Z,64.83
2018-12-19T02:35:48.073Z,62.67
2018-12-19T02:38:17.267Z,67.17
2018-12-19T02:40:47.223Z,67.77
2018-12-19T02:43:16.392Z,71.97
2018-12-19T02:45:45.197Z,66.30
2018-12-19T02:48:13.132Z,74.13
2018-12-19T02:50:41.802Z,77.63
2018-12-19T02:53:09.801Z,69.00
2018-12-19T02:55:37.927Z,76.77
2018-12-19T02:58:05.996Z,63.40
2018-12-19T03:00:34.726Z,72.33
2018-12-19T03:03:02.723Z,68.67
2018-12-19T03:05:32.184Z,72.33
2018-12-19T03:08:00.824Z,80.70
2018-12-19T03:10:30.229Z,73.70
2018-12-19T03:12:58.889Z,76.83
2018-12-19T03:15:26.895Z,64.37
2018-12-19T03:17:55.020Z,73.33
2018-12-19T03:20:24.394Z,71.30
2018-12-19T03:22:53.273Z,66.37
2018-12-19T03:25:21.930Z,72.83
2018-12-19T03:27:49.941Z,65.17
2018-12-19T03:30:18.929Z,77.80
2018-12-19T03:32:47.595Z,79.93
2018-12-19T03:35:16.522Z,82.37
2018-12-19T03:37:45.765Z,73.80
2018-12-19T03:40:14.430Z,84.93
2018-12-19T03:42:42.513Z,85.13
2018-12-19T03:45:11.632Z,74.90
2018-12-19T03:47:39.815Z,85.60
2018-12-19T03:50:09.667Z,85.90
2018-12-19T03:52:40.066Z,83.53
2018-12-19T03:55:09.102Z,92.17
2018-12-19T03:57:37.880Z,73.70
2018-12-19T04:00:07.869Z,77.40
2018-12-19T04:02:37.151Z,84.10
2018-12-19T04:05:06.702Z,80.63
2018-12-19T04:07:35.256Z,73.73
2018-12-19T04:10:04.598Z,79.67
2018-12-19T04:12:33.951Z,74.17
2018-12-19T04:15:02.132Z,85.87
2018-12-19T04:17:31.686Z,86.20
2018-12-19T04:20:00.294Z,94.20
2018-12-19T04:22:28.247Z,83.47
2018-12-19T04:24:56.435Z,105.37
2018-12-19T04:27:25.198Z,99.27
2018-12-19T04:29:53.649Z,78.40
2018-12-19T04:32:21.949Z,89.33
2018-12-19T04:34:51.694Z,91.07
2018-12-19T04:37:19.695Z,88.93
2018-12-19T04:39:48.971Z,87.10
2018-12-19T04:42:17.791Z,96.37
2018-12-19T04:44:46.149Z,104.63
2018-12-19T04:47:14.881Z,118.70
2018-12-19T04:49:43.943Z,113.93
2018-12-19T04:52:12.642Z,99.73
2018-12-19T04:54:40.658Z,89.83
2018-12-19T04:57:08.795Z,101.80
2018-12-19T04:59:37.902Z,109.03
2018-12-19T05:02:06.431Z,100.67
2018-12-19T05:04:34.526Z,92.60
2018-12-19T05:07:03.576Z,120.50
2018-12-19T05:09:32.470Z,108.10
2018-12-19T05:12:00.697Z,116.13
2018-12-19T05:14:29.328Z,124.37
2018-12-19T05:16:58.077Z,113.10
2018-12-19T05:19:27.346Z,125.97
2018-12-19T05:21:56.221Z,114.67
2018-12-19T05:24:25.005Z,111.53
2018-12-19T05:26:53.800Z,118.87
2018-12-19T05:29:22.451Z,109.53
2018-12-19T05:31:51.618Z,122.77
2018-12-19T05:34:20.821Z,121.47
2018-12-19T05:36:48.953Z,134.57
2018-12-19T05:39:18.544Z,156.20
2018-12-19T05:41:47.351Z,137.10
2018-12-19T05:44:15.367Z,123.63
2018-12-19T05:46:44.825Z,134.40
2018-12-19T05:49:13.006Z,133.70
2018-12-19T05:51:42.979Z,123.10
2018-12-19T05:54:11.049Z,136.60
2018-12-19T05:56:39.103Z,129.77
2018-12-19T05:59:07.261Z,140.40
2018-12-19T06:01:37.213Z,122.70
2018-12-19T06:04:05.292Z,122.87
2018-12-19T06:06:33.581Z,108.83
2018-12-19T06:09:01.898Z,130.33
2018-12-19T06:11:31.274Z,119.43
2018-12-19T06:13:59.499Z,115.30
2018-12-19T06:16:27.891Z,125.50
2018-12-19T06:18:56.662Z,134.53
2018-12-19T06:21:24.898Z,122.33
2018-12-19T06:23:54.058Z,123.63
2018-12-19T06:26:22.691Z,125.80
2018-12-19T06:28:50.773Z,136.10
2018-12-19T06:31:20.128Z,146.60
2018-12-19T06:33:48.702Z,139.23
2018-12-19T06:36:17.505Z,107.47
2018-12-19T06:38:46.447Z,133.77
2018-12-19T06:41:15.333Z,105.77
2018-12-19T06:43:44.673Z,106.07
2018-12-19T06:46:13.616Z,108.33
2018-12-19T06:48:43.404Z,111.20
2018-12-19T06:51:12.161Z,114.30
2018-12-19T06:53:41.659Z,117.43
2018-12-19T06:56:10.585Z,117.80
2018-12-19T06:58:40.473Z,105.77
2018-12-19T07:01:10.181Z,105.40
2018-12-19T07:03:38.327Z,98.17
2018-12-19T07:06:06.953Z,101.60
2018-12-19T07:08:35.478Z,108.73
2018-12-19T07:11:03.646Z,114.50
2018-12-19T07:13:33.048Z,107.50
2018-12-19T07:16:02.086Z,94.33
2018-12-19T07:18:32.329Z,100.07
2018-12-19T07:21:00.966Z,90.80
2018-12-19T07:23:29.176Z,84.23
2018-12-19T07:25:58.791Z,84.23
2018-12-19T07:28:27.559Z,82.43
2018-12-19T07:30:58.136Z,89.97
2018-12-19T07:33:27.056Z,91.07
2018-12-19T07:35:56.368Z,87.17
2018-12-19T07:38:25.038Z,88.90
2018-12-19T07:40:53.548Z,90.17
2018-12-19T07:43:21.552Z,87.70
2018-12-19T07:45:49.553Z,90.60
2018-12-19T07:48:18.886Z,77.77
2018-12-19T07:50:47.907Z,80.20
2018-12-19T07:53:16.763Z,81.67
2018-12-19T07:55:46.983Z,71.47
2018-12-19T07:58:16.423Z,83.63
2018-12-19T08:00:44.578Z,174.10
2018-12-19T08:03:14.605Z,110.77
2018-12-19T08:05:45.189Z,95.90
2018-12-19T08:08:13.206Z,93.13
2018-12-19T08:10:42.492Z,71.20
2018-12-19T08:13:12.376Z,123.07
2018-12-19T08:15:42.864Z,150.57
2018-12-19T08:18:11.053Z,97.83
2018-12-19T08:20:40.732Z,76.53
2018-12-19T08:23:08.886Z,75.23
2018-12-19T08:25:37.143Z,68.10
2018-12-19T08:28:07.726Z,74.67
2018-12-19T08:30:36.460Z,78.93
2018-12-19T08:33:07.623Z,63.23
2018-12-19T08:35:36.316Z,75.70
2018-12-19T08:38:07.457Z,84.10
2018-12-19T08:40:36.853Z,66.90
2018-12-19T08:43:05.766Z,72.00
2018-12-19T08:45:34.848Z,76.87
2018-12-19T08:48:03.220Z,74.73
2018-12-19T08:50:32.533Z,68.07
2018-12-19T08:53:00.655Z,67.23
2018-12-19T08:55:29.404Z,67.50
2018-12-19T08:57:58.165Z,61.17
2018-12-19T09:00:29.206Z,68.17
2018-12-19T09:02:59.907Z,63.60
2018-12-19T09:05:28.919Z,72.80
2018-12-19T09:08:00.671Z,77.10
2018-12-19T09:10:28.796Z,64.77
2018-12-19T09:12:57.741Z,70.80
2018-12-19T09:15:35.655Z,67.67
2018-12-19T09:18:04.545Z,79.43
2018-12-19T09:20:33.871Z,67.00
2018-12-19T09:23:04.544Z,68.53
2018-12-19T09:25:33.926Z,61.83
2018-12-19T09:28:02.906Z,72.90
2018-12-19T09:30:32.274Z,61.97
2018-12-19T09:33:01.092Z,63.37
2018-12-19T09:35:30.114Z,67.97
2018-12-19T09:38:00.114Z,58.10
2018-12-19T09:40:29.012Z,67.80
2018-12-19T09:42:57.661Z,63.67
2018-12-19T09:45:26.902Z,59.93
2018-12-19T09:47:57.301Z,62.33
2018-12-19T09:50:27.396Z,78.90
2018-12-19T09:53:00.077Z,68.93
2018-12-19T09:55:29.373Z,68.43
2018-12-19T09:57:59.448Z,89.73
2018-12-19T10:00:28.370Z,60.80
2018-12-19T10:02:56.665Z,64.43
2018-12-19T10:05:26.825Z,59.20
2018-12-19T10:07:58.880Z,58.40
2018-12-19T10:10:27.591Z,57.07
2018-12-19T10:12:57.927Z,63.23
2018-12-19T10:15:27.621Z,56.10
2018-12-19T10:18:00.731Z,53.70
2018-12-19T10:20:31.272Z,68.80
2018-12-19T10:23:01.102Z,65.77
2018-12-19T10:25:36.000Z,59.17
2018-12-19T10:28:06.351Z,58.00
2018-12-19T10:30:39.060Z,56.20
2018-12-19T10:33:10.482Z,58.93
2018-12-19T10:35:39.465Z,49.87
2018-12-19T10:38:10.210Z,52.23
2018-12-19T10:40:41.927Z,60.33
2018-12-19T10:43:11.676Z,60.50
2018-12-19T10:45:45.265Z,57.00
2018-12-19T10:48:13.875Z,178.10
2018-12-19T10:50:46.480Z,107.70
2018-12-19T10:53:15.484Z,96.90
2018-12-19T10:55:47.933Z,54.90
2018-12-19T10:58:17.416Z,57.00
2018-12-19T11:00:53.065Z,121.17
2018-12-19T11:03:23.462Z,54.57
2018-12-19T11:05:54.448Z,57.63
2018-12-19T11:08:26.177Z,58.73
2018-12-19T11:11:03.295Z,69.50
2018-12-19T11:13:33.214Z,84.03
2018-12-19T11:16:06.638Z,57.27
2018-12-19T11:18:35.798Z,68.20
2018-12-19T11:21:06.792Z,66.37
2018-12-19T11:23:37.236Z,63.70
2018-12-19T11:26:08.384Z,61.50
2018-12-19T11:28:44.003Z,60.00
2018-12-19T11:31:17.558Z,75.03
2018-12-19T11:33:48.265Z,67.90
2018-12-19T11:38:57.174Z,57.90
2018-12-19T11:41:26.023Z,59.73
2018-12-19T11:43:55.534Z,68.67
2018-12-19T11:46:24.704Z,61.87
2018-12-19T11:48:55.335Z,60.50
2018-12-19T11:51:32.020Z,55.37
2018-12-19T11:54:01.428Z,55.40
2018-12-19T11:56:37.061Z,57.73
2018-12-19T11:59:08.409Z,57.10
2018-12-19T12:01:43.378Z,63.10
2018-12-19T12:04:12.013Z,61.40
2018-12-19T12:06:42.331Z,55.80
2018-12-19T12:09:11.798Z,56.67
2018-12-19T12:11:45.788Z,59.47
2018-12-19T12:14:16.674Z,64.00
2018-12-19T12:16:55.883Z,58.17
2018-12-19T12:19:25.031Z,56.67
2018-12-19T12:21:53.547Z,59.67
2018-12-19T12:24:24.131Z,60.13
2018-12-19T12:26:56.949Z,63.27
2018-12-19T12:29:25.995Z,61.93
2018-12-19T12:34:35.598Z,65.07
2018-12-19T12:37:06.116Z,56.27
2018-12-19T12:39:34.379Z,60.33
2018-12-19T12:42:11.018Z,62.53
2018-12-19T12:44:42.754Z,64.83
2018-12-19T12:47:26.440Z,56.70
2018-12-19T12:49:56.892Z,55.43
2018-12-19T12:52:27.096Z,56.20
2018-12-19T12:54:59.048Z,57.40
2018-12-19T12:57:29.126Z,63.53
2018-12-19T13:00:01.094Z,59.40
2018-12-19T13:02:30.536Z,65.63
2018-12-19T13:04:59.886Z,62.93
2018-12-19T13:07:29.764Z,58.10
2018-12-19T13:09:58.945Z,57.87
2018-12-19T13:12:29.085Z,56.00
2018-12-19T13:14:57.967Z,60.00
2018-12-19T13:17:33.425Z,61.80
2018-12-19T13:20:07.422Z,60.10
2018-12-19T13:22:37.347Z,64.67
2018-12-19T13:25:06.509Z,54.50
2018-12-19T13:30:15.320Z,60.60
2018-12-19T13:32:44.443Z,66.97
2018-12-19T13:35:14.460Z,67.00
2018-12-19T13:37:43.655Z,62.50
2018-12-19T13:40:12.372Z,64.53
2018-12-19T13:42:43.208Z,62.57
2018-12-19T13:45:14.731Z,64.47
2018-12-19T13:47:48.068Z,62.77
2018-12-19T13:50:24.925Z,72.23
2018-12-19T13:52:59.635Z,66.63
2018-12-19T13:55:31.932Z,65.53
2018-12-19T13:58:07.169Z,63.60
2018-12-19T14:00:38.411Z,129.30
2018-12-19T14:03:08.067Z,64.47
2018-12-19T14:05:36.198Z,61.67
2018-12-19T14:08:05.029Z,66.43
2018-12-19T14:10:34.600Z,68.40
2018-12-19T14:13:03.173Z,72.43
2018-12-19T14:15:32.319Z,69.50
2018-12-19T14:18:06.887Z,66.73
2018-12-19T14:20:37.507Z,67.77
2018-12-19T14:23:05.970Z,69.30
2018-12-19T14:25:34.590Z,61.23
2018-12-19T14:28:05.086Z,69.13
2018-12-19T14:30:35.541Z,63.50
2018-12-19T14:33:05.258Z,64.63
2018-12-19T14:35:36.377Z,63.90
2018-12-19T14:38:06.545Z,58.50
2018-12-19T14:40:34.757Z,74.83
2018-12-19T14:43:05.425Z,67.10
2018-12-19T14:45:38.907Z,67.10
2018-12-19T14:48:12.528Z,68.67
2018-12-19T14:50:41.261Z,71.60
2018-12-19T14:53:09.408Z,69.80
2018-12-19T14:55:37.764Z,76.17
2018-12-19T14:58:06.456Z,74.30
2018-12-19T15:00:36.365Z,73.53
2018-12-19T15:03:05.827Z,80.57
2018-12-19T15:05:35.393Z,79.03
2018-12-19T15:08:05.599Z,84.63
2018-12-19T15:10:34.947Z,82.77
2018-12-19T15:13:05.994Z,86.07
2018-12-19T15:15:37.533Z,87.60
2018-12-19T15:18:09.552Z,81.27
2018-12-19T15:20:38.603Z,89.13
2018-12-19T15:23:08.706Z,85.60
2018-12-19T15:25:38.029Z,98.80
2018-12-19T15:28:06.206Z,94.33
2018-12-19T15:30:36.008Z,104.57
2018-12-19T15:33:05.661Z,91.40
2018-12-19T15:35:39.776Z,99.47
2018-12-19T15:38:09.227Z,88.97
2018-12-19T15:40:38.025Z,90.10
2018-12-19T15:43:06.753Z,96.20
2018-12-19T15:45:37.605Z,104.70
2018-12-19T15:48:12.142Z,99.50
2018-12-19T15:50:44.127Z,130.43
2018-12-19T15:53:13.193Z,149.87
2018-12-19T15:55:42.027Z,118.40
2018-12-19T15:58:12.185Z,158.73
2018-12-19T16:00:41.803Z,132.87
2018-12-19T16:03:11.806Z,154.97
2018-12-19T16:05:42.693Z,112.97
2018-12-19T16:08:10.751Z,151.03
2018-12-19T16:10:40.943Z,127.87
2018-12-19T16:13:10.290Z,127.47
2018-12-19T16:15:39.542Z,139.10
2018-12-19T16:18:08.621Z,133.10
2018-12-19T16:20:38.985Z,110.83
2018-12-19T16:23:09.074Z,113.07
2018-12-19T16:25:38.165Z,107.13
2018-12-19T16:28:07.005Z,114.00
2018-12-19T16:30:36.575Z,113.83
2018-12-19T16:33:05.769Z,110.10
2018-12-19T16:35:34.604Z,92.83
2018-12-19T16:38:04.980Z,101.97
2018-12-19T16:40:34.178Z,95.27
2018-12-19T16:43:03.647Z,89.77
2018-12-19T16:45:32.569Z,108.47
2018-12-19T16:48:04.226Z,99.07
2018-12-19T16:50:33.274Z,94.17
2018-12-19T16:53:07.447Z,106.93
2018-12-19T16:55:39.730Z,87.77
2018-12-19T16:58:09.211Z,115.03
2018-12-19T17:00:41.478Z,101.03
2018-12-19T17:05:54.314Z,89.30
2018-12-19T17:08:28.936Z,97.30
2018-12-19T17:11:03.471Z,94.57
2018-12-19T17:13:32.936Z,95.83
2018-12-19T17:16:03.681Z,85.70
2018-12-19T17:18:34.640Z,82.67
2018-12-19T17:23:42.560Z,86.60
2018-12-19T17:26:14.849Z,88.10
2018-12-19T17:28:44.029Z,79.47
2018-12-19T17:31:16.244Z,82.07
2018-12-19T17:33:59.007Z,78.97
2018-12-19T17:36:28.621Z,83.53
2018-12-19T17:38:58.329Z,125.20
2018-12-19T17:41:39.003Z,120.43
2018-12-19T17:44:10.532Z,97.37
2018-12-19T17:46:42.899Z,102.43
2018-12-19T17:49:13.969Z,92.33
2018-12-19T17:51:44.465Z,70.90
2018-12-19T17:54:15.287Z,73.93
2018-12-19T17:56:43.647Z,68.87
2018-12-19T17:59:11.706Z,71.83
2018-12-19T18:01:47.527Z,69.63
2018-12-19T18:04:22.045Z,64.00
2018-12-19T18:06:51.974Z,69.47
2018-12-19T18:09:22.791Z,65.80
2018-12-19T18:11:53.004Z,74.30
2018-12-19T18:14:26.682Z,61.50
2018-12-19T18:16:58.380Z,68.37
2018-12-19T18:19:33.930Z,61.73
2018-12-19T18:22:12.649Z,58.60
2018-12-19T18:24:42.459Z,69.23
2018-12-19T18:27:14.816Z,68.10
2018-12-19T18:29:45.491Z,78.13
2018-12-19T18:32:16.061Z,69.90
2018-12-19T18:34:48.165Z,87.40
2018-12-19T18:37:28.273Z,90.43
2018-12-19T18:40:06.706Z,87.20
2018-12-19T18:42:44.973Z,85.07
2018-12-19T18:45:17.673Z,86.97
2018-12-19T18:50:30.050Z,81.00
2018-12-19T18:53:01.315Z,95.53
2018-12-19T18:55:33.361Z,91.30
2018-12-19T18:58:03.439Z,88.40
2018-12-19T19:00:46.434Z,86.60
2018-12-19T19:03:15.717Z,91.83
2018-12-19T19:05:47.559Z,97.57
2018-12-19T19:08:19.142Z,95.90
2018-12-19T19:11:04.813Z,96.67
2018-12-19T19:13:46.408Z,89.47
2018-12-19T19:16:24.073Z,85.90
2018-12-19T19:18:53.261Z,87.13
2018-12-19T19:21:29.843Z,86.53
2018-12-19T19:23:58.030Z,87.97
2018-12-19T19:26:29.447Z,88.67
2018-12-19T19:29:05.190Z,94.90
2018-12-19T19:34:25.941Z,82.27
2018-12-19T19:37:05.687Z,87.83
2018-12-19T19:39:54.956Z,88.53
2018-12-19T19:42:30.708Z,93.03
2018-12-19T19:47:41.702Z,104.93
2018-12-19T19:50:11.806Z,102.33
2018-12-19T19:52:50.843Z,90.23
2018-12-19T19:55:19.734Z,105.90
2018-12-19T19:57:53.230Z,111.30
2018-12-19T20:00:36.216Z,103.83
2018-12-19T20:03:20.318Z,106.13
2018-12-19T20:05:53.358Z,106.77
2018-12-19T20:11:06.814Z,112.50
2018-12-19T20:16:28.678Z,121.27
2018-12-19T20:18:58.005Z,103.53
2018-12-19T20:21:27.269Z,104.77
2018-12-19T20:23:57.320Z,109.97
2018-12-19T20:26:26.801Z,97.27
2018-12-19T20:28:59.481Z,106.80
2018-12-19T20:31:30.991Z,107.20
2018-12-19T20:33:59.215Z,124.33
2018-12-19T20:36:28.516Z,121.87
2018-12-19T20:39:05.575Z,116.53
2018-12-19T20:41:34.250Z,115.90
2018-12-19T20:44:16.620Z,111.57
2018-12-19T20:46:57.450Z,103.30
2018-12-19T20:49:27.962Z,114.57
2018-12-19T20:57:25.661Z,104.37
2018-12-19T21:00:00.217Z,107.23
2018-12-19T21:02:29.530Z,103.17
2018-12-19T21:05:01.370Z,110.43
2018-12-19T21:10:05.847Z,112.60
2018-12-19T21:15:14.196Z,89.93
2018-12-19T21:17:52.468Z,93.90
2018-12-19T21:20:28.808Z,86.53
2018-12-19T21:23:06.303Z,90.20
2018-12-19T21:25:36.010Z,86.10
2018-12-19T21:28:06.510Z,90.13
2018-12-19T21:30:39.014Z,79.93
2018-12-19T21:36:03.005Z,86.80
2018-12-19T21:38:32.400Z,74.20
2018-12-19T21:43:39.509Z,76.10
2018-12-19T21:46:09.764Z,74.27
2018-12-19T21:48:45.012Z,78.20
2018-12-19T21:51:15.913Z,62.83
2018-12-19T21:53:45.255Z,61.27
2018-12-19T21:56:14.768Z,58.07
2018-12-19T21:58:43.477Z,71.03
2018-12-19T22:01:11.547Z,63.07
2018-12-19T22:03:46.625Z,58.07
2018-12-19T22:06:21.410Z,54.40
2018-12-19T22:08:50.451Z,62.97
2018-12-19T22:11:22.209Z,58.90
2018-12-19T22:13:50.802Z,55.70
2018-12-19T22:16:26.055Z,64.75
2018-12-19T22:21:45.630Z,57.90
2018-12-19T22:24:13.984Z,55.20
2018-12-19T22:26:43.817Z,58.70
2018-12-19T22:29:12.896Z,53.60
2018-12-19T22:31:42.119Z,56.73
2018-12-19T22:34:10.946Z,53.93
2018-12-19T22:36:40.181Z,59.23
2018-12-19T22:39:13.794Z,61.20
2018-12-19T22:41:43.340Z,61.25
2018-12-19T22:44:14.078Z,60.10
2018-12-19T22:46:42.952Z,56.07
2018-12-19T22:49:19.897Z,57.78
2018-12-19T22:51:48.737Z,55.90
2018-12-19T22:54:17.174Z,55.03
2018-12-19T22:56:45.432Z,62.87
2018-12-19T22:59:15.241Z,55.78
2018-12-19T23:01:49.838Z,58.35
2018-12-19T23:04:19.820Z,67.00
2018-12-19T23:06:49.138Z,59.83
2018-12-19T23:09:18.414Z,59.75
2018-12-19T23:11:47.082Z,65.15
2018-12-19T23:14:16.082Z,61.92
2018-12-19T23:16:45.509Z,73.10
2018-12-19T23:19:17.173Z,81.95
2018-12-19T23:21:47.316Z,72.40
2018-12-19T23:24:15.689Z,61.50
2018-12-19T23:26:45.855Z,83.50
2018-12-19T23:29:13.952Z,74.65
2018-12-19T23:31:43.057Z,72.40
2018-12-19T23:34:12.195Z,83.15
2018-12-19T23:36:40.721Z,75.28
2018-12-19T23:39:09.603Z,70.75
2018-12-19T23:41:39.040Z,78.40
2018-12-19T23:44:07.163Z,74.97
2018-12-19T23:46:35.324Z,82.97
2018-12-19T23:49:04.798Z,80.62
2018-12-19T23:51:35.530Z,82.53
2018-12-19T23:54:05.177Z,90.60
2018-12-19T23:56:34.024Z,85.85
2018-12-19T23:59:02.798Z,97.00
